sensor_id;sensor_type;location;lat;lon;timestamp;P1;durP1;ratioP1;P2;durP2;ratioP2
72406;SDS011;60396;47.550;18.828;2022-08-19T00:01:51;11.82;;;6.35;;
72406;SDS011;60396;47.550;18.828;2022-08-19T00:04:22;12.00;;;6.18;;
72406;SDS011;60396;47.550;18.828;2022-08-19T00:06:52;14.80;;;6.47;;
72406;SDS011;60396;47.550;18.828;2022-08-19T00:09:20;17.33;;;6.80;;
72406;SDS011;60396;47.550;18.828;2022-08-19T00:11:49;10.17;;;6.53;;
72406;SDS011;60396;47.550;18.828;2022-08-19T00:14:19;11.38;;;5.50;;
72406;SDS011;60396;47.550;18.828;2022-08-19T00:16:48;10.65;;;6.25;;
72406;SDS011;60396;47.550;18.828;2022-08-19T00:19:16;14.13;;;6.80;;
72406;SDS011;60396;47.550;18.828;2022-08-19T00:21:43;13.05;;;6.30;;
72406;SDS011;60396;47.550;18.828;2022-08-19T00:24:12;14.70;;;5.97;;
72406;SDS011;60396;47.550;18.828;2022-08-19T00:26:41;12.57;;;6.10;;
72406;SDS011;60396;47.550;18.828;2022-08-19T00:29:10;11.73;;;6.28;;
72406;SDS011;60396;47.550;18.828;2022-08-19T00:31:39;13.25;;;6.65;;
72406;SDS011;60396;47.550;18.828;2022-08-19T00:34:09;15.25;;;6.18;;
72406;SDS011;60396;47.550;18.828;2022-08-19T00:36:39;10.97;;;5.80;;
72406;SDS011;60396;47.550;18.828;2022-08-19T00:39:09;10.80;;;6.10;;
72406;SDS011;60396;47.550;18.828;2022-08-19T00:41:37;11.65;;;6.37;;
72406;SDS011;60396;47.550;18.828;2022-08-19T00:44:10;15.60;;;6.47;;
72406;SDS011;60396;47.550;18.828;2022-08-19T00:46:43;13.48;;;6.60;;
72406;SDS011;60396;47.550;18.828;2022-08-19T00:49:29;10.83;;;6.23;;
72406;SDS011;60396;47.550;18.828;2022-08-19T00:52:02;11.40;;;5.85;;
72406;SDS011;60396;47.550;18.828;2022-08-19T00:54:32;10.70;;;6.05;;
72406;SDS011;60396;47.550;18.828;2022-08-19T00:57:00;12.15;;;5.93;;
72406;SDS011;60396;47.550;18.828;2022-08-19T00:59:29;13.35;;;6.45;;
72406;SDS011;60396;47.550;18.828;2022-08-19T01:02:17;14.73;;;5.80;;
72406;SDS011;60396;47.550;18.828;2022-08-19T01:04:44;10.68;;;5.82;;
72406;SDS011;60396;47.550;18.828;2022-08-19T01:07:12;12.40;;;5.85;;
72406;SDS011;60396;47.550;18.828;2022-08-19T01:09:46;11.85;;;5.72;;
72406;SDS011;60396;47.550;18.828;2022-08-19T01:12:13;11.60;;;6.53;;
72406;SDS011;60396;47.550;18.828;2022-08-19T01:14:41;12.20;;;5.80;;
72406;SDS011;60396;47.550;18.828;2022-08-19T01:17:09;9.95;;;5.95;;
72406;SDS011;60396;47.550;18.828;2022-08-19T01:19:39;10.80;;;5.93;;
72406;SDS011;60396;47.550;18.828;2022-08-19T01:24:59;10.70;;;5.95;;
72406;SDS011;60396;47.550;18.828;2022-08-19T01:27:27;13.40;;;6.67;;
72406;SDS011;60396;47.550;18.828;2022-08-19T01:30:11;12.80;;;6.15;;
72406;SDS011;60396;47.550;18.828;2022-08-19T01:32:42;13.55;;;6.50;;
72406;SDS011;60396;47.550;18.828;2022-08-19T01:35:11;15.13;;;6.55;;
72406;SDS011;60396;47.550;18.828;2022-08-19T01:40:20;12.93;;;6.43;;
72406;SDS011;60396;47.550;18.828;2022-08-19T01:42:55;11.18;;;6.10;;
72406;SDS011;60396;47.550;18.828;2022-08-19T01:45:24;11.05;;;6.32;;
72406;SDS011;60396;47.550;18.828;2022-08-19T01:47:52;11.05;;;5.65;;
72406;SDS011;60396;47.550;18.828;2022-08-19T01:50:30;13.30;;;5.68;;
72406;SDS011;60396;47.550;18.828;2022-08-19T01:52:58;12.77;;;6.20;;
72406;SDS011;60396;47.550;18.828;2022-08-19T01:55:35;11.80;;;5.60;;
72406;SDS011;60396;47.550;18.828;2022-08-19T01:58:12;13.10;;;6.28;;
72406;SDS011;60396;47.550;18.828;2022-08-19T02:00:42;12.48;;;5.87;;
72406;SDS011;60396;47.550;18.828;2022-08-19T02:03:10;12.68;;;5.97;;
72406;SDS011;60396;47.550;18.828;2022-08-19T02:05:44;10.63;;;6.17;;
72406;SDS011;60396;47.550;18.828;2022-08-19T02:08:12;16.37;;;6.18;;
72406;SDS011;60396;47.550;18.828;2022-08-19T02:10:41;10.57;;;6.25;;
72406;SDS011;60396;47.550;18.828;2022-08-19T02:13:09;11.10;;;6.00;;
72406;SDS011;60396;47.550;18.828;2022-08-19T02:15:38;11.95;;;6.60;;
72406;SDS011;60396;47.550;18.828;2022-08-19T02:18:06;12.83;;;5.80;;
72406;SDS011;60396;47.550;18.828;2022-08-19T02:20:35;10.98;;;5.97;;
72406;SDS011;60396;47.550;18.828;2022-08-19T02:23:04;10.10;;;6.07;;
72406;SDS011;60396;47.550;18.828;2022-08-19T02:25:40;13.70;;;5.78;;
72406;SDS011;60396;47.550;18.828;2022-08-19T02:28:08;12.77;;;6.15;;
72406;SDS011;60396;47.550;18.828;2022-08-19T02:30:36;10.23;;;6.00;;
72406;SDS011;60396;47.550;18.828;2022-08-19T02:33:04;11.38;;;6.53;;
72406;SDS011;60396;47.550;18.828;2022-08-19T02:35:32;12.65;;;5.85;;
72406;SDS011;60396;47.550;18.828;2022-08-19T02:37:59;11.57;;;6.00;;
72406;SDS011;60396;47.550;18.828;2022-08-19T02:40:49;12.27;;;6.28;;
72406;SDS011;60396;47.550;18.828;2022-08-19T02:43:19;11.27;;;5.80;;
72406;SDS011;60396;47.550;18.828;2022-08-19T02:45:48;11.57;;;6.32;;
72406;SDS011;60396;47.550;18.828;2022-08-19T02:48:16;12.93;;;5.97;;
72406;SDS011;60396;47.550;18.828;2022-08-19T02:50:49;12.63;;;6.10;;
72406;SDS011;60396;47.550;18.828;2022-08-19T02:53:24;15.13;;;6.10;;
72406;SDS011;60396;47.550;18.828;2022-08-19T02:55:54;11.83;;;5.43;;
72406;SDS011;60396;47.550;18.828;2022-08-19T02:58:21;10.88;;;5.78;;
72406;SDS011;60396;47.550;18.828;2022-08-19T03:00:52;12.25;;;6.40;;
72406;SDS011;60396;47.550;18.828;2022-08-19T03:03:21;12.60;;;6.32;;
72406;SDS011;60396;47.550;18.828;2022-08-19T03:05:49;10.25;;;6.43;;
72406;SDS011;60396;47.550;18.828;2022-08-19T03:08:23;12.40;;;6.43;;
72406;SDS011;60396;47.550;18.828;2022-08-19T03:10:52;11.25;;;6.28;;
72406;SDS011;60396;47.550;18.828;2022-08-19T03:13:20;11.38;;;5.75;;
72406;SDS011;60396;47.550;18.828;2022-08-19T03:15:48;9.95;;;6.20;;
72406;SDS011;60396;47.550;18.828;2022-08-19T03:18:16;12.85;;;6.57;;
72406;SDS011;60396;47.550;18.828;2022-08-19T03:20:45;12.17;;;6.67;;
72406;SDS011;60396;47.550;18.828;2022-08-19T03:23:16;10.70;;;6.70;;
72406;SDS011;60396;47.550;18.828;2022-08-19T03:25:45;12.23;;;6.03;;
72406;SDS011;60396;47.550;18.828;2022-08-19T03:28:34;10.98;;;6.28;;
72406;SDS011;60396;47.550;18.828;2022-08-19T03:31:10;13.05;;;6.20;;
72406;SDS011;60396;47.550;18.828;2022-08-19T03:33:59;11.83;;;6.57;;
72406;SDS011;60396;47.550;18.828;2022-08-19T03:36:27;12.23;;;6.28;;
72406;SDS011;60396;47.550;18.828;2022-08-19T03:38:57;10.13;;;6.03;;
72406;SDS011;60396;47.550;18.828;2022-08-19T03:41:27;12.23;;;7.22;;
72406;SDS011;60396;47.550;18.828;2022-08-19T03:44:15;12.40;;;5.80;;
72406;SDS011;60396;47.550;18.828;2022-08-19T03:46:55;11.43;;;6.07;;
72406;SDS011;60396;47.550;18.828;2022-08-19T03:49:25;11.55;;;6.40;;
72406;SDS011;60396;47.550;18.828;2022-08-19T03:51:55;10.07;;;6.20;;
72406;SDS011;60396;47.550;18.828;2022-08-19T03:54:24;11.55;;;6.12;;
72406;SDS011;60396;47.550;18.828;2022-08-19T03:56:52;12.23;;;6.65;;
72406;SDS011;60396;47.550;18.828;2022-08-19T03:59:27;11.87;;;6.20;;
72406;SDS011;60396;47.550;18.828;2022-08-19T04:01:58;10.82;;;5.95;;
72406;SDS011;60396;47.550;18.828;2022-08-19T04:04:27;11.43;;;6.20;;
72406;SDS011;60396;47.550;18.828;2022-08-19T04:06:58;12.57;;;5.90;;
72406;SDS011;60396;47.550;18.828;2022-08-19T04:09:25;10.68;;;5.93;;
72406;SDS011;60396;47.550;18.828;2022-08-19T04:11:54;15.70;;;6.60;;
72406;SDS011;60396;47.550;18.828;2022-08-19T04:14:24;13.50;;;6.15;;
72406;SDS011;60396;47.550;18.828;2022-08-19T04:16:55;11.48;;;5.97;;
72406;SDS011;60396;47.550;18.828;2022-08-19T04:19:23;11.05;;;5.82;;
72406;SDS011;60396;47.550;18.828;2022-08-19T04:21:52;12.15;;;6.57;;
72406;SDS011;60396;47.550;18.828;2022-08-19T04:24:21;12.10;;;6.23;;
72406;SDS011;60396;47.550;18.828;2022-08-19T04:26:49;13.70;;;6.37;;
72406;SDS011;60396;47.550;18.828;2022-08-19T04:29:18;11.45;;;5.10;;
72406;SDS011;60396;47.550;18.828;2022-08-19T04:31:49;11.43;;;5.50;;
72406;SDS011;60396;47.550;18.828;2022-08-19T04:34:17;12.00;;;6.07;;
72406;SDS011;60396;47.550;18.828;2022-08-19T04:36:50;12.20;;;6.13;;
72406;SDS011;60396;47.550;18.828;2022-08-19T04:39:21;11.02;;;5.87;;
72406;SDS011;60396;47.550;18.828;2022-08-19T04:42:11;13.05;;;6.20;;
72406;SDS011;60396;47.550;18.828;2022-08-19T04:45:03;12.18;;;6.18;;
72406;SDS011;60396;47.550;18.828;2022-08-19T04:47:36;11.43;;;6.10;;
72406;SDS011;60396;47.550;18.828;2022-08-19T04:50:24;9.70;;;5.83;;
72406;SDS011;60396;47.550;18.828;2022-08-19T04:52:54;14.32;;;6.12;;
72406;SDS011;60396;47.550;18.828;2022-08-19T04:55:23;9.80;;;5.78;;
72406;SDS011;60396;47.550;18.828;2022-08-19T04:57:53;11.43;;;6.37;;
72406;SDS011;60396;47.550;18.828;2022-08-19T05:00:22;13.75;;;6.65;;
72406;SDS011;60396;47.550;18.828;2022-08-19T05:02:49;12.40;;;6.40;;
72406;SDS011;60396;47.550;18.828;2022-08-19T05:05:17;14.85;;;6.70;;
72406;SDS011;60396;47.550;18.828;2022-08-19T05:07:45;11.38;;;6.20;;
72406;SDS011;60396;47.550;18.828;2022-08-19T05:10:13;12.05;;;6.15;;
72406;SDS011;60396;47.550;18.828;2022-08-19T05:12:40;11.85;;;6.15;;
72406;SDS011;60396;47.550;18.828;2022-08-19T05:15:08;9.97;;;5.93;;
72406;SDS011;60396;47.550;18.828;2022-08-19T05:17:36;16.98;;;6.70;;
72406;SDS011;60396;47.550;18.828;2022-08-19T05:20:06;11.80;;;5.72;;
72406;SDS011;60396;47.550;18.828;2022-08-19T05:22:53;10.00;;;5.43;;
72406;SDS011;60396;47.550;18.828;2022-08-19T05:25:21;12.82;;;6.20;;
72406;SDS011;60396;47.550;18.828;2022-08-19T05:27:49;13.37;;;6.43;;
72406;SDS011;60396;47.550;18.828;2022-08-19T05:30:24;11.48;;;5.60;;
72406;SDS011;60396;47.550;18.828;2022-08-19T05:33:12;10.90;;;5.62;;
72406;SDS011;60396;47.550;18.828;2022-08-19T05:35:40;14.90;;;6.62;;
72406;SDS011;60396;47.550;18.828;2022-08-19T05:38:08;11.98;;;6.10;;
72406;SDS011;60396;47.550;18.828;2022-08-19T05:40:35;13.67;;;6.43;;
72406;SDS011;60396;47.550;18.828;2022-08-19T05:43:05;14.57;;;6.35;;
72406;SDS011;60396;47.550;18.828;2022-08-19T05:45:37;15.45;;;5.80;;
72406;SDS011;60396;47.550;18.828;2022-08-19T05:48:07;10.68;;;5.70;;
72406;SDS011;60396;47.550;18.828;2022-08-19T05:50:39;13.38;;;6.18;;
72406;SDS011;60396;47.550;18.828;2022-08-19T05:53:08;13.17;;;6.23;;
72406;SDS011;60396;47.550;18.828;2022-08-19T05:55:36;10.82;;;5.62;;
72406;SDS011;60396;47.550;18.828;2022-08-19T05:58:05;16.23;;;6.03;;
72406;SDS011;60396;47.550;18.828;2022-08-19T06:00:35;11.02;;;6.45;;
72406;SDS011;60396;47.550;18.828;2022-08-19T06:03:09;13.40;;;6.53;;
72406;SDS011;60396;47.550;18.828;2022-08-19T06:05:39;10.07;;;5.87;;
72406;SDS011;60396;47.550;18.828;2022-08-19T06:08:16;17.75;;;6.75;;
72406;SDS011;60396;47.550;18.828;2022-08-19T06:10:45;11.48;;;6.20;;
72406;SDS011;60396;47.550;18.828;2022-08-19T06:13:13;12.02;;;5.30;;
72406;SDS011;60396;47.550;18.828;2022-08-19T06:15:42;18.73;;;5.85;;
72406;SDS011;60396;47.550;18.828;2022-08-19T06:18:12;11.77;;;5.57;;
72406;SDS011;60396;47.550;18.828;2022-08-19T06:20:41;16.65;;;5.75;;
72406;SDS011;60396;47.550;18.828;2022-08-19T06:23:22;15.80;;;5.68;;
72406;SDS011;60396;47.550;18.828;2022-08-19T06:25:50;11.10;;;5.80;;
72406;SDS011;60396;47.550;18.828;2022-08-19T06:28:18;11.50;;;5.50;;
72406;SDS011;60396;47.550;18.828;2022-08-19T06:30:46;12.53;;;5.30;;
72406;SDS011;60396;47.550;18.828;2022-08-19T06:33:14;12.52;;;5.43;;
72406;SDS011;60396;47.550;18.828;2022-08-19T06:35:41;13.80;;;5.37;;
72406;SDS011;60396;47.550;18.828;2022-08-19T06:38:09;10.63;;;4.80;;
72406;SDS011;60396;47.550;18.828;2022-08-19T06:40:36;8.68;;;4.90;;
72406;SDS011;60396;47.550;18.828;2022-08-19T06:43:05;9.20;;;4.83;;
72406;SDS011;60396;47.550;18.828;2022-08-19T06:45:36;10.40;;;4.82;;
72406;SDS011;60396;47.550;18.828;2022-08-19T06:48:06;9.63;;;4.85;;
72406;SDS011;60396;47.550;18.828;2022-08-19T06:50:34;10.23;;;4.10;;
72406;SDS011;60396;47.550;18.828;2022-08-19T06:53:06;10.98;;;4.72;;
72406;SDS011;60396;47.550;18.828;2022-08-19T06:55:34;11.33;;;5.07;;
72406;SDS011;60396;47.550;18.828;2022-08-19T06:58:03;8.05;;;4.32;;
72406;SDS011;60396;47.550;18.828;2022-08-19T07:00:32;9.13;;;4.40;;
72406;SDS011;60396;47.550;18.828;2022-08-19T07:03:00;8.55;;;4.65;;
72406;SDS011;60396;47.550;18.828;2022-08-19T07:05:32;11.77;;;4.70;;
72406;SDS011;60396;47.550;18.828;2022-08-19T07:08:05;10.93;;;4.73;;
72406;SDS011;60396;47.550;18.828;2022-08-19T07:10:33;11.32;;;4.87;;
72406;SDS011;60396;47.550;18.828;2022-08-19T07:13:02;8.70;;;4.78;;
72406;SDS011;60396;47.550;18.828;2022-08-19T07:15:30;14.43;;;5.00;;
72406;SDS011;60396;47.550;18.828;2022-08-19T07:17:58;9.93;;;4.60;;
72406;SDS011;60396;47.550;18.828;2022-08-19T07:20:26;10.60;;;4.53;;
72406;SDS011;60396;47.550;18.828;2022-08-19T07:22:54;10.00;;;4.78;;
72406;SDS011;60396;47.550;18.828;2022-08-19T07:25:22;9.82;;;4.30;;
72406;SDS011;60396;47.550;18.828;2022-08-19T07:27:59;10.40;;;5.03;;
72406;SDS011;60396;47.550;18.828;2022-08-19T07:30:28;8.88;;;5.03;;
72406;SDS011;60396;47.550;18.828;2022-08-19T07:32:57;8.63;;;4.90;;
72406;SDS011;60396;47.550;18.828;2022-08-19T07:35:25;9.30;;;4.50;;
72406;SDS011;60396;47.550;18.828;2022-08-19T07:37:53;9.77;;;4.45;;
72406;SDS011;60396;47.550;18.828;2022-08-19T07:40:21;11.85;;;4.28;;
72406;SDS011;60396;47.550;18.828;2022-08-19T07:42:48;9.20;;;4.30;;
72406;SDS011;60396;47.550;18.828;2022-08-19T07:45:16;10.90;;;4.63;;
72406;SDS011;60396;47.550;18.828;2022-08-19T07:47:44;12.23;;;5.28;;
72406;SDS011;60396;47.550;18.828;2022-08-19T07:50:14;12.63;;;4.50;;
72406;SDS011;60396;47.550;18.828;2022-08-19T07:52:42;12.18;;;4.62;;
72406;SDS011;60396;47.550;18.828;2022-08-19T07:55:16;13.20;;;4.62;;
72406;SDS011;60396;47.550;18.828;2022-08-19T07:58:07;8.30;;;4.80;;
72406;SDS011;60396;47.550;18.828;2022-08-19T08:00:34;13.65;;;4.85;;
72406;SDS011;60396;47.550;18.828;2022-08-19T08:03:03;10.77;;;5.03;;
72406;SDS011;60396;47.550;18.828;2022-08-19T08:05:30;8.77;;;4.62;;
72406;SDS011;60396;47.550;18.828;2022-08-19T08:08:17;10.70;;;4.82;;
72406;SDS011;60396;47.550;18.828;2022-08-19T08:11:10;9.00;;;4.87;;
72406;SDS011;60396;47.550;18.828;2022-08-19T08:13:42;13.60;;;4.55;;
72406;SDS011;60396;47.550;18.828;2022-08-19T08:16:09;8.50;;;4.55;;
72406;SDS011;60396;47.550;18.828;2022-08-19T08:18:40;9.90;;;4.72;;
72406;SDS011;60396;47.550;18.828;2022-08-19T08:21:17;11.70;;;4.43;;
72406;SDS011;60396;47.550;18.828;2022-08-19T08:23:44;7.83;;;4.33;;
72406;SDS011;60396;47.550;18.828;2022-08-19T08:26:12;10.88;;;4.60;;
72406;SDS011;60396;47.550;18.828;2022-08-19T08:28:42;10.77;;;4.62;;
72406;SDS011;60396;47.550;18.828;2022-08-19T08:31:15;13.38;;;5.20;;
72406;SDS011;60396;47.550;18.828;2022-08-19T08:33:43;11.98;;;5.00;;
72406;SDS011;60396;47.550;18.828;2022-08-19T08:36:11;10.17;;;5.00;;
72406;SDS011;60396;47.550;18.828;2022-08-19T08:38:41;10.45;;;4.93;;
72406;SDS011;60396;47.550;18.828;2022-08-19T08:42:01;10.60;;;4.82;;
72406;SDS011;60396;47.550;18.828;2022-08-19T08:44:21;15.13;;;4.70;;
72406;SDS011;60396;47.550;18.828;2022-08-19T08:47:13;10.00;;;5.00;;
72406;SDS011;60396;47.550;18.828;2022-08-19T08:49:50;13.97;;;5.00;;
72406;SDS011;60396;47.550;18.828;2022-08-19T08:52:28;9.20;;;4.93;;
72406;SDS011;60396;47.550;18.828;2022-08-19T08:55:00;11.75;;;4.75;;
72406;SDS011;60396;47.550;18.828;2022-08-19T08:57:43;10.57;;;4.78;;
72406;SDS011;60396;47.550;18.828;2022-08-19T09:00:32;11.80;;;4.62;;
72406;SDS011;60396;47.550;18.828;2022-08-19T09:03:02;8.63;;;4.80;;
72406;SDS011;60396;47.550;18.828;2022-08-19T09:05:40;10.30;;;4.45;;
72406;SDS011;60396;47.550;18.828;2022-08-19T09:08:17;10.57;;;4.50;;
72406;SDS011;60396;47.550;18.828;2022-08-19T09:10:52;9.77;;;4.28;;
72406;SDS011;60396;47.550;18.828;2022-08-19T09:13:44;10.07;;;5.22;;
72406;SDS011;60396;47.550;18.828;2022-08-19T09:16:56;13.40;;;5.07;;
72406;SDS011;60396;47.550;18.828;2022-08-19T09:19:25;9.63;;;4.55;;
72406;SDS011;60396;47.550;18.828;2022-08-19T09:21:55;10.05;;;4.68;;
72406;SDS011;60396;47.550;18.828;2022-08-19T09:24:23;12.70;;;4.93;;
72406;SDS011;60396;47.550;18.828;2022-08-19T09:26:57;14.15;;;4.97;;
72406;SDS011;60396;47.550;18.828;2022-08-19T09:29:25;10.10;;;4.90;;
72406;SDS011;60396;47.550;18.828;2022-08-19T09:31:52;13.30;;;4.72;;
72406;SDS011;60396;47.550;18.828;2022-08-19T09:34:21;10.68;;;5.60;;
72406;SDS011;60396;47.550;18.828;2022-08-19T09:36:49;11.07;;;4.95;;
72406;SDS011;60396;47.550;18.828;2022-08-19T09:39:22;9.68;;;5.03;;
72406;SDS011;60396;47.550;18.828;2022-08-19T09:41:50;8.93;;;4.93;;
72406;SDS011;60396;47.550;18.828;2022-08-19T09:44:18;10.15;;;4.75;;
72406;SDS011;60396;47.550;18.828;2022-08-19T09:46:48;10.50;;;5.37;;
72406;SDS011;60396;47.550;18.828;2022-08-19T09:49:16;11.15;;;4.78;;
72406;SDS011;60396;47.550;18.828;2022-08-19T09:51:45;12.05;;;5.18;;
72406;SDS011;60396;47.550;18.828;2022-08-19T09:54:17;13.60;;;4.63;;
72406;SDS011;60396;47.550;18.828;2022-08-19T09:56:52;11.43;;;4.78;;
72406;SDS011;60396;47.550;18.828;2022-08-19T09:59:21;11.35;;;4.80;;
72406;SDS011;60396;47.550;18.828;2022-08-19T10:01:49;12.75;;;5.10;;
72406;SDS011;60396;47.550;18.828;2022-08-19T10:04:17;15.00;;;5.53;;
72406;SDS011;60396;47.550;18.828;2022-08-19T10:06:47;13.77;;;5.67;;
72406;SDS011;60396;47.550;18.828;2022-08-19T10:09:20;18.70;;;5.43;;
72406;SDS011;60396;47.550;18.828;2022-08-19T10:12:01;12.85;;;5.50;;
72406;SDS011;60396;47.550;18.828;2022-08-19T10:14:32;15.93;;;5.40;;
72406;SDS011;60396;47.550;18.828;2022-08-19T10:17:00;10.18;;;5.12;;
72406;SDS011;60396;47.550;18.828;2022-08-19T10:19:46;14.67;;;4.87;;
72406;SDS011;60396;47.550;18.828;2022-08-19T10:22:22;9.85;;;5.45;;
72406;SDS011;60396;47.550;18.828;2022-08-19T10:24:52;13.32;;;5.10;;
72406;SDS011;60396;47.550;18.828;2022-08-19T10:27:20;11.25;;;5.47;;
72406;SDS011;60396;47.550;18.828;2022-08-19T10:29:48;10.40;;;4.97;;
72406;SDS011;60396;47.550;18.828;2022-08-19T10:32:16;12.77;;;5.60;;
72406;SDS011;60396;47.550;18.828;2022-08-19T10:34:43;12.77;;;5.35;;
72406;SDS011;60396;47.550;18.828;2022-08-19T10:37:15;11.38;;;5.30;;
72406;SDS011;60396;47.550;18.828;2022-08-19T10:39:55;11.88;;;5.00;;
72406;SDS011;60396;47.550;18.828;2022-08-19T10:42:22;12.30;;;5.72;;
72406;SDS011;60396;47.550;18.828;2022-08-19T10:44:50;13.57;;;5.57;;
72406;SDS011;60396;47.550;18.828;2022-08-19T10:47:18;9.38;;;4.95;;
72406;SDS011;60396;47.550;18.828;2022-08-19T10:49:53;13.40;;;4.97;;
72406;SDS011;60396;47.550;18.828;2022-08-19T10:52:41;12.15;;;4.87;;
72406;SDS011;60396;47.550;18.828;2022-08-19T10:55:20;11.82;;;4.57;;
72406;SDS011;60396;47.550;18.828;2022-08-19T10:58:11;10.13;;;5.30;;
72406;SDS011;60396;47.550;18.828;2022-08-19T11:00:40;8.48;;;4.75;;
72406;SDS011;60396;47.550;18.828;2022-08-19T11:03:10;11.52;;;4.80;;
72406;SDS011;60396;47.550;18.828;2022-08-19T11:05:37;11.93;;;4.85;;
72406;SDS011;60396;47.550;18.828;2022-08-19T11:08:07;10.65;;;5.10;;
72406;SDS011;60396;47.550;18.828;2022-08-19T11:10:51;12.07;;;5.20;;
72406;SDS011;60396;47.550;18.828;2022-08-19T11:13:22;17.98;;;5.22;;
72406;SDS011;60396;47.550;18.828;2022-08-19T11:16:01;9.18;;;4.70;;
72406;SDS011;60396;47.550;18.828;2022-08-19T11:18:38;13.00;;;5.72;;
72406;SDS011;60396;47.550;18.828;2022-08-19T11:21:15;10.20;;;5.05;;
72406;SDS011;60396;47.550;18.828;2022-08-19T11:23:47;10.97;;;5.43;;
72406;SDS011;60396;47.550;18.828;2022-08-19T11:26:18;17.90;;;5.00;;
72406;SDS011;60396;47.550;18.828;2022-08-19T11:28:46;12.68;;;5.37;;
72406;SDS011;60396;47.550;18.828;2022-08-19T11:31:17;15.63;;;5.70;;
72406;SDS011;60396;47.550;18.828;2022-08-19T11:33:46;18.85;;;5.47;;
72406;SDS011;60396;47.550;18.828;2022-08-19T11:36:14;11.57;;;4.93;;
72406;SDS011;60396;47.550;18.828;2022-08-19T11:38:43;10.52;;;5.55;;
72406;SDS011;60396;47.550;18.828;2022-08-19T11:41:12;12.00;;;6.00;;
72406;SDS011;60396;47.550;18.828;2022-08-19T11:43:39;11.95;;;6.00;;
72406;SDS011;60396;47.550;18.828;2022-08-19T11:46:08;13.55;;;7.03;;
72406;SDS011;60396;47.550;18.828;2022-08-19T11:48:42;12.50;;;6.67;;
72406;SDS011;60396;47.550;18.828;2022-08-19T11:51:11;13.50;;;7.05;;
72406;SDS011;60396;47.550;18.828;2022-08-19T11:53:41;13.62;;;6.40;;
72406;SDS011;60396;47.550;18.828;2022-08-19T11:56:09;12.80;;;7.85;;
72406;SDS011;60396;47.550;18.828;2022-08-19T11:58:39;15.75;;;8.77;;
72406;SDS011;60396;47.550;18.828;2022-08-19T12:01:10;17.33;;;8.83;;
72406;SDS011;60396;47.550;18.828;2022-08-19T12:03:38;21.92;;;9.50;;
72406;SDS011;60396;47.550;18.828;2022-08-19T12:06:10;12.85;;;8.95;;
72406;SDS011;60396;47.550;18.828;2022-08-19T12:08:40;19.45;;;9.18;;
72406;SDS011;60396;47.550;18.828;2022-08-19T12:11:11;16.48;;;9.23;;
72406;SDS011;60396;47.550;18.828;2022-08-19T12:13:39;20.83;;;11.43;;
72406;SDS011;60396;47.550;18.828;2022-08-19T12:16:15;20.05;;;12.23;;
72406;SDS011;60396;47.550;18.828;2022-08-19T12:18:47;20.70;;;12.32;;
72406;SDS011;60396;47.550;18.828;2022-08-19T12:21:15;18.17;;;11.07;;
72406;SDS011;60396;47.550;18.828;2022-08-19T12:23:44;19.77;;;11.35;;
72406;SDS011;60396;47.550;18.828;2022-08-19T12:26:12;20.77;;;11.03;;
72406;SDS011;60396;47.550;18.828;2022-08-19T12:28:40;16.42;;;10.65;;
72406;SDS011;60396;47.550;18.828;2022-08-19T12:31:08;17.95;;;10.50;;
72406;SDS011;60396;47.550;18.828;2022-08-19T12:33:39;16.80;;;11.55;;
72406;SDS011;60396;47.550;18.828;2022-08-19T12:36:09;21.05;;;11.77;;
72406;SDS011;60396;47.550;18.828;2022-08-19T12:38:38;19.10;;;12.50;;
72406;SDS011;60396;47.550;18.828;2022-08-19T12:41:06;21.37;;;13.40;;
72406;SDS011;60396;47.550;18.828;2022-08-19T12:43:35;20.80;;;12.48;;
72406;SDS011;60396;47.550;18.828;2022-08-19T12:46:03;19.70;;;12.18;;
72406;SDS011;60396;47.550;18.828;2022-08-19T12:48:32;25.45;;;13.52;;
72406;SDS011;60396;47.550;18.828;2022-08-19T12:51:12;24.07;;;13.33;;
72406;SDS011;60396;47.550;18.828;2022-08-19T12:53:41;20.73;;;13.65;;
72406;SDS011;60396;47.550;18.828;2022-08-19T12:56:10;19.15;;;12.88;;
72406;SDS011;60396;47.550;18.828;2022-08-19T12:58:39;23.85;;;12.55;;
72406;SDS011;60396;47.550;18.828;2022-08-19T13:01:16;24.98;;;11.35;;
72406;SDS011;60396;47.550;18.828;2022-08-19T13:03:48;19.13;;;9.97;;
72406;SDS011;60396;47.550;18.828;2022-08-19T13:06:17;20.65;;;12.02;;
72406;SDS011;60396;47.550;18.828;2022-08-19T13:08:47;19.02;;;10.80;;
72406;SDS011;60396;47.550;18.828;2022-08-19T13:11:15;22.30;;;8.95;;
72406;SDS011;60396;47.550;18.828;2022-08-19T13:13:47;25.42;;;6.82;;
72406;SDS011;60396;47.550;18.828;2022-08-19T13:16:17;19.83;;;6.43;;
72406;SDS011;60396;47.550;18.828;2022-08-19T13:18:47;15.95;;;5.90;;
72406;SDS011;60396;47.550;18.828;2022-08-19T13:21:15;16.35;;;6.32;;
72406;SDS011;60396;47.550;18.828;2022-08-19T13:23:42;12.85;;;5.20;;
72406;SDS011;60396;47.550;18.828;2022-08-19T13:26:10;11.02;;;4.65;;
72406;SDS011;60396;47.550;18.828;2022-08-19T13:28:39;16.73;;;5.87;;
72406;SDS011;60396;47.550;18.828;2022-08-19T13:31:27;16.08;;;5.45;;
72406;SDS011;60396;47.550;18.828;2022-08-19T13:34:14;23.55;;;5.60;;
72406;SDS011;60396;47.550;18.828;2022-08-19T13:36:43;20.50;;;4.53;;
72406;SDS011;60396;47.550;18.828;2022-08-19T13:39:11;21.50;;;4.10;;
72406;SDS011;60396;47.550;18.828;2022-08-19T13:41:43;21.60;;;3.80;;
72406;SDS011;60396;47.550;18.828;2022-08-19T13:44:15;22.48;;;4.00;;
72406;SDS011;60396;47.550;18.828;2022-08-19T13:46:46;17.58;;;4.10;;
72406;SDS011;60396;47.550;18.828;2022-08-19T13:49:14;15.40;;;4.00;;
72406;SDS011;60396;47.550;18.828;2022-08-19T13:51:42;20.85;;;4.15;;
72406;SDS011;60396;47.550;18.828;2022-08-19T13:54:11;15.83;;;3.97;;
72406;SDS011;60396;47.550;18.828;2022-08-19T13:56:40;20.52;;;4.68;;
72406;SDS011;60396;47.550;18.828;2022-08-19T13:59:09;19.33;;;4.57;;
72406;SDS011;60396;47.550;18.828;2022-08-19T14:01:37;15.82;;;4.20;;
72406;SDS011;60396;47.550;18.828;2022-08-19T14:04:05;22.80;;;4.18;;
72406;SDS011;60396;47.550;18.828;2022-08-19T14:06:33;11.90;;;3.43;;
72406;SDS011;60396;47.550;18.828;2022-08-19T14:09:01;14.73;;;3.62;;
72406;SDS011;60396;47.550;18.828;2022-08-19T14:11:29;17.90;;;3.75;;
72406;SDS011;60396;47.550;18.828;2022-08-19T14:13:57;14.00;;;3.67;;
72406;SDS011;60396;47.550;18.828;2022-08-19T14:16:24;18.92;;;3.65;;
72406;SDS011;60396;47.550;18.828;2022-08-19T14:18:55;15.77;;;3.30;;
72406;SDS011;60396;47.550;18.828;2022-08-19T14:21:23;19.02;;;3.50;;
72406;SDS011;60396;47.550;18.828;2022-08-19T14:23:52;17.58;;;3.85;;
72406;SDS011;60396;47.550;18.828;2022-08-19T14:26:21;14.15;;;3.30;;
72406;SDS011;60396;47.550;18.828;2022-08-19T14:28:51;16.20;;;3.12;;
72406;SDS011;60396;47.550;18.828;2022-08-19T14:31:19;15.53;;;3.23;;
72406;SDS011;60396;47.550;18.828;2022-08-19T14:33:49;18.02;;;3.15;;
72406;SDS011;60396;47.550;18.828;2022-08-19T14:36:17;19.60;;;3.55;;
72406;SDS011;60396;47.550;18.828;2022-08-19T14:38:46;19.27;;;3.30;;
72406;SDS011;60396;47.550;18.828;2022-08-19T14:41:16;16.77;;;2.03;;
72406;SDS011;60396;47.550;18.828;2022-08-19T14:43:48;16.60;;;2.60;;
72406;SDS011;60396;47.550;18.828;2022-08-19T14:46:18;16.90;;;2.70;;
72406;SDS011;60396;47.550;18.828;2022-08-19T14:48:48;16.08;;;3.00;;
72406;SDS011;60396;47.550;18.828;2022-08-19T14:51:19;17.23;;;2.75;;